sensor_id;sensor_type;location;lat;lon;timestamp;pressure;altitude;pressure_sealevel;temperature;humidity
23635;BME280;11994;51.038;16.974;2023-02-26T00:02:24;99263.34;;;1.29;88.26
23635;BME280;11994;51.038;16.974;2023-02-26T00:04:49;99261.10;;;1.26;88.60
23635;BME280;11994;51.038;16.974;2023-02-26T00:07:14;99265.92;;;1.23;88.38
23635;BME280;11994;51.038;16.974;2023-02-26T00:09:40;99264.73;;;1.20;88.42
23635;BME280;11994;51.038;16.974;2023-02-26T00:12:05;99270.74;;;1.16;88.41
23635;BME280;11994;51.038;16.974;2023-02-26T00:14:31;99269.89;;;1.13;88.58
23635;BME280;11994;51.038;16.974;2023-02-26T00:19:30;99272.65;;;1.08;88.73
23635;BME280;11994;51.038;16.974;2023-02-26T00:21:56;99275.58;;;1.08;89.02
23635;BME280;11994;51.038;16.974;2023-02-26T00:24:21;99275.93;;;1.10;89.07
23635;BME280;11994;51.038;16.974;2023-02-26T00:26:46;99278.34;;;1.14;88.86
23635;BME280;11994;51.038;16.974;2023-02-26T00:29:12;99278.67;;;1.18;88.86
23635;BME280;11994;51.038;16.974;2023-02-26T00:31:37;99280.91;;;1.19;88.70
23635;BME280;11994;51.038;16.974;2023-02-26T00:34:02;99287.63;;;1.21;88.66
23635;BME280;11994;51.038;16.974;2023-02-26T00:41:52;99296.58;;;1.23;88.39
23635;BME280;11994;51.038;16.974;2023-02-26T00:44:17;99300.70;;;1.24;88.27
23635;BME280;11994;51.038;16.974;2023-02-26T00:46:44;99303.80;;;1.24;88.36
23635;BME280;11994;51.038;16.974;2023-02-26T00:51:57;99306.73;;;1.27;88.02
23635;BME280;11994;51.038;16.974;2023-02-26T00:54:27;99310.00;;;1.27;88.19
23635;BME280;11994;51.038;16.974;2023-02-26T00:56:53;99310.34;;;1.29;88.32
23635;BME280;11994;51.038;16.974;2023-02-26T00:59:19;99308.63;;;1.30;87.97
23635;BME280;11994;51.038;16.974;2023-02-26T01:01:45;99311.20;;;1.28;87.99
23635;BME280;11994;51.038;16.974;2023-02-26T01:04:11;99317.23;;;1.28;88.01
23635;BME280;11994;51.038;16.974;2023-02-26T01:06:38;99319.12;;;1.25;88.08
23635;BME280;11994;51.038;16.974;2023-02-26T01:11:34;99320.67;;;1.22;88.14
23635;BME280;11994;51.038;16.974;2023-02-26T01:14:00;99321.20;;;1.21;88.17
23635;BME280;11994;51.038;16.974;2023-02-26T01:16:26;99322.91;;;1.19;88.09
23635;BME280;11994;51.038;16.974;2023-02-26T01:18:55;99326.70;;;1.19;88.27
23635;BME280;11994;51.038;16.974;2023-02-26T01:21:24;99331.70;;;1.19;88.17
23635;BME280;11994;51.038;16.974;2023-02-26T01:23:52;99333.42;;;1.20;88.43
23635;BME280;11994;51.038;16.974;2023-02-26T01:26:18;99340.30;;;1.20;88.38
23635;BME280;11994;51.038;16.974;2023-02-26T01:28:46;99339.96;;;1.18;88.41
23635;BME280;11994;51.038;16.974;2023-02-26T01:31:46;99341.17;;;1.16;88.43
23635;BME280;11994;51.038;16.974;2023-02-26T01:34:17;99343.58;;;1.15;88.53
23635;BME280;11994;51.038;16.974;2023-02-26T01:36:51;99350.48;;;1.13;88.65
23635;BME280;11994;51.038;16.974;2023-02-26T01:39:21;99354.07;;;1.08;88.52
23635;BME280;11994;51.038;16.974;2023-02-26T01:41:51;99355.45;;;1.08;88.72
23635;BME280;11994;51.038;16.974;2023-02-26T01:47:09;99366.47;;;1.09;88.76
23635;BME280;11994;51.038;16.974;2023-02-26T01:49:37;99368.52;;;1.09;89.03
23635;BME280;11994;51.038;16.974;2023-02-26T01:52:03;99367.50;;;1.10;89.09
23635;BME280;11994;51.038;16.974;2023-02-26T01:59:28;99371.11;;;1.05;89.03
23635;BME280;11994;51.038;16.974;2023-02-26T02:01:55;99379.02;;;1.01;88.99
23635;BME280;11994;51.038;16.974;2023-02-26T02:04:21;99383.15;;;0.98;89.18
23635;BME280;11994;51.038;16.974;2023-02-26T02:06:48;99388.33;;;0.97;89.39
23635;BME280;11994;51.038;16.974;2023-02-26T02:09:13;99389.02;;;0.97;89.35
23635;BME280;11994;51.038;16.974;2023-02-26T02:11:42;99391.76;;;0.95;89.45
23635;BME280;11994;51.038;16.974;2023-02-26T02:19:49;99399.32;;;0.97;89.64
23635;BME280;11994;51.038;16.974;2023-02-26T02:25:16;99404.52;;;1.03;89.59
23635;BME280;11994;51.038;16.974;2023-02-26T02:33:14;99412.59;;;1.01;89.48
23635;BME280;11994;51.038;16.974;2023-02-26T02:35:48;99419.13;;;1.00;89.48
23635;BME280;11994;51.038;16.974;2023-02-26T02:38:20;99425.31;;;0.99;89.57
23635;BME280;11994;51.038;16.974;2023-02-26T02:40:49;99432.20;;;0.98;89.49
23635;BME280;11994;51.038;16.974;2023-02-26T02:43:17;99434.62;;;0.97;89.53
23635;BME280;11994;51.038;16.974;2023-02-26T02:45:54;99435.12;;;0.96;89.69
23635;BME280;11994;51.038;16.974;2023-02-26T02:48:23;99443.55;;;0.94;89.64
23635;BME280;11994;51.038;16.974;2023-02-26T02:50:54;99442.86;;;0.93;89.78
23635;BME280;11994;51.038;16.974;2023-02-26T02:53:42;99447.86;;;0.97;89.68
23635;BME280;11994;51.038;16.974;2023-02-26T02:56:15;99445.80;;;1.00;89.81
23635;BME280;11994;51.038;16.974;2023-02-26T02:58:43;99450.12;;;1.05;89.59
23635;BME280;11994;51.038;16.974;2023-02-26T03:01:12;99454.41;;;1.06;89.67
23635;BME280;11994;51.038;16.974;2023-02-26T03:03:49;99456.49;;;1.06;89.79
23635;BME280;11994;51.038;16.974;2023-02-26T03:06:16;99460.45;;;1.05;89.54
23635;BME280;11994;51.038;16.974;2023-02-26T03:08:42;99467.67;;;1.05;89.51
23635;BME280;11994;51.038;16.974;2023-02-26T03:11:07;99467.84;;;1.04;89.38
23635;BME280;11994;51.038;16.974;2023-02-26T03:13:33;99470.08;;;1.03;89.30
23635;BME280;11994;51.038;16.974;2023-02-26T03:26:42;99496.60;;;1.08;89.21
23635;BME280;11994;51.038;16.974;2023-02-26T03:29:54;99498.84;;;1.10;89.24
23635;BME280;11994;51.038;16.974;2023-02-26T03:31:59;99509.52;;;1.10;89.21
23635;BME280;11994;51.038;16.974;2023-02-26T03:37:01;99522.25;;;1.10;88.96
23635;BME280;11994;51.038;16.974;2023-02-26T03:39:39;99525.86;;;1.09;88.72
23635;BME280;11994;51.038;16.974;2023-02-26T03:42:10;99526.52;;;1.06;88.62
23635;BME280;11994;51.038;16.974;2023-02-26T03:44:46;99531.70;;;1.04;88.36
23635;BME280;11994;51.038;16.974;2023-02-26T03:47:13;99531.19;;;1.05;88.40
23635;BME280;11994;51.038;16.974;2023-02-26T03:52:07;99538.25;;;1.10;88.44
23635;BME280;11994;51.038;16.974;2023-02-26T03:54:55;99546.70;;;1.11;88.37
23635;BME280;11994;51.038;16.974;2023-02-26T03:57:18;99545.31;;;1.09;88.20
23635;BME280;11994;51.038;16.974;2023-02-26T03:59:43;99547.19;;;1.06;87.99
23635;BME280;11994;51.038;16.974;2023-02-26T04:02:10;99546.48;;;1.03;88.05
23635;BME280;11994;51.038;16.974;2023-02-26T04:04:41;99551.31;;;1.00;88.01
23635;BME280;11994;51.038;16.974;2023-02-26T04:07:10;99557.66;;;0.97;87.84
23635;BME280;11994;51.038;16.974;2023-02-26T04:09:36;99561.95;;;0.95;87.95
23635;BME280;11994;51.038;16.974;2023-02-26T04:12:04;99567.80;;;0.95;87.94
23635;BME280;11994;51.038;16.974;2023-02-26T04:14:29;99568.70;;;0.97;87.76
23635;BME280;11994;51.038;16.974;2023-02-26T04:16:55;99570.75;;;0.97;87.77
23635;BME280;11994;51.038;16.974;2023-02-26T04:19:20;99573.50;;;0.99;87.66
23635;BME280;11994;51.038;16.974;2023-02-26T04:21:45;99576.95;;;1.00;87.94
23635;BME280;11994;51.038;16.974;2023-02-26T04:24:10;99582.29;;;1.01;87.82
23635;BME280;11994;51.038;16.974;2023-02-26T04:26:36;99581.94;;;0.99;87.74
23635;BME280;11994;51.038;16.974;2023-02-26T04:29:01;99581.59;;;0.97;87.77
23635;BME280;11994;51.038;16.974;2023-02-26T04:31:26;99585.36;;;0.96;87.82
23635;BME280;11994;51.038;16.974;2023-02-26T04:33:52;99591.21;;;0.94;87.78
23635;BME280;11994;51.038;16.974;2023-02-26T04:36:17;99592.76;;;0.92;87.69
23635;BME280;11994;51.038;16.974;2023-02-26T04:38:42;99591.71;;;0.93;87.67
23635;BME280;11994;51.038;16.974;2023-02-26T04:41:08;99595.17;;;0.94;87.70
23635;BME280;11994;51.038;16.974;2023-02-26T04:43:33;99596.22;;;0.99;87.72
23635;BME280;11994;51.038;16.974;2023-02-26T04:45:59;99602.61;;;1.02;87.79
23635;BME280;11994;51.038;16.974;2023-02-26T04:48:24;99600.20;;;1.02;87.73
23635;BME280;11994;51.038;16.974;2023-02-26T04:50:50;99604.32;;;1.00;87.62
23635;BME280;11994;51.038;16.974;2023-02-26T04:53:16;99609.14;;;1.00;87.61
23635;BME280;11994;51.038;16.974;2023-02-26T04:55:41;99609.81;;;0.99;87.42
23635;BME280;11994;51.038;16.974;2023-02-26T04:58:07;99615.67;;;0.98;87.39
23635;BME280;11994;51.038;16.974;2023-02-26T05:00:32;99616.17;;;0.96;87.35
23635;BME280;11994;51.038;16.974;2023-02-26T05:02:58;99619.26;;;0.94;87.23
23635;BME280;11994;51.038;16.974;2023-02-26T05:05:23;99619.08;;;0.91;86.84
23635;BME280;11994;51.038;16.974;2023-02-26T05:07:49;99619.73;;;0.87;86.90
23635;BME280;11994;51.038;16.974;2023-02-26T05:10:17;99622.33;;;0.89;87.14
23635;BME280;11994;51.038;16.974;2023-02-26T05:12:42;99624.59;;;0.92;87.13
23635;BME280;11994;51.038;16.974;2023-02-26T05:15:08;99630.27;;;0.94;86.94
23635;BME280;11994;51.038;16.974;2023-02-26T05:17:34;99630.45;;;0.95;86.85
23635;BME280;11994;51.038;16.974;2023-02-26T05:19:59;99633.54;;;0.93;87.02
23635;BME280;11994;51.038;16.974;2023-02-26T05:22:24;99641.45;;;0.92;86.95
23635;BME280;11994;51.038;16.974;2023-02-26T05:24:49;99643.67;;;0.91;86.74
23635;BME280;11994;51.038;16.974;2023-02-26T05:27:15;99642.64;;;0.91;86.81
23635;BME280;11994;51.038;16.974;2023-02-26T05:29:40;99650.20;;;0.90;86.77
23635;BME280;11994;51.038;16.974;2023-02-26T05:32:08;99650.20;;;0.88;86.52
23635;BME280;11994;51.038;16.974;2023-02-26T05:34:34;99654.84;;;0.87;86.51
23635;BME280;11994;51.038;16.974;2023-02-26T05:36:59;99664.81;;;0.85;86.55
23635;BME280;11994;51.038;16.974;2023-02-26T05:39:24;99665.50;;;0.86;86.65
23635;BME280;11994;51.038;16.974;2023-02-26T05:41:49;99671.36;;;0.88;86.38
23635;BME280;11994;51.038;16.974;2023-02-26T05:44:17;99673.45;;;0.88;86.37
23635;BME280;11994;51.038;16.974;2023-02-26T05:46:42;99678.95;;;0.89;86.47
23635;BME280;11994;51.038;16.974;2023-02-26T05:49:07;99682.91;;;0.90;86.37
23635;BME280;11994;51.038;16.974;2023-02-26T05:51:33;99687.39;;;0.91;86.39
23635;BME280;11994;51.038;16.974;2023-02-26T05:53:58;99690.48;;;0.89;86.25
23635;BME280;11994;51.038;16.974;2023-02-26T05:56:24;99695.98;;;0.90;86.31
23635;BME280;11994;51.038;16.974;2023-02-26T05:58:49;99701.14;;;0.90;86.42
23635;BME280;11994;51.038;16.974;2023-02-26T06:01:14;99703.55;;;0.90;86.44
23635;BME280;11994;51.038;16.974;2023-02-26T06:03:40;99708.88;;;0.87;86.38
23635;BME280;11994;51.038;16.974;2023-02-26T06:06:08;99712.33;;;0.86;86.46
23635;BME280;11994;51.038;16.974;2023-02-26T06:08:34;99718.34;;;0.86;86.36
23635;BME280;11994;51.038;16.974;2023-02-26T06:10:59;99727.29;;;0.86;86.43
23635;BME280;11994;51.038;16.974;2023-02-26T06:13:25;99728.13;;;0.85;86.37
23635;BME280;11994;51.038;16.974;2023-02-26T06:15:50;99730.56;;;0.86;86.32
23635;BME280;11994;51.038;16.974;2023-02-26T06:18:16;99731.77;;;0.89;86.42
23635;BME280;11994;51.038;16.974;2023-02-26T06:20:41;99734.06;;;0.94;86.58
23635;BME280;11994;51.038;16.974;2023-02-26T06:23:06;99742.53;;;1.00;86.64
23635;BME280;11994;51.038;16.974;2023-02-26T06:25:32;99749.27;;;1.03;86.45
23635;BME280;11994;51.038;16.974;2023-02-26T06:27:57;99752.88;;;1.03;86.53
23635;BME280;11994;51.038;16.974;2023-02-26T06:30:22;99759.44;;;1.05;86.59
23635;BME280;11994;51.038;16.974;2023-02-26T06:32:48;99759.09;;;1.04;86.44
23635;BME280;11994;51.038;16.974;2023-02-26T06:35:13;99767.17;;;1.04;86.50
23635;BME280;11994;51.038;16.974;2023-02-26T06:37:39;99770.08;;;1.02;86.48
23635;BME280;11994;51.038;16.974;2023-02-26T06:40:04;99774.73;;;1.00;86.40
23635;BME280;11994;51.038;16.974;2023-02-26T06:42:30;99781.08;;;0.98;86.71
23635;BME280;11994;51.038;16.974;2023-02-26T06:44:55;99784.00;;;0.99;86.53
23635;BME280;11994;51.038;16.974;2023-02-26T06:47:21;99786.09;;;1.02;86.83
23635;BME280;11994;51.038;16.974;2023-02-26T06:49:46;99789.57;;;1.05;86.66
23635;BME280;11994;51.038;16.974;2023-02-26T06:52:13;99789.39;;;1.06;86.75
23635;BME280;11994;51.038;16.974;2023-02-26T06:54:38;99793.70;;;1.07;86.81
23635;BME280;11994;51.038;16.974;2023-02-26T06:57:03;99792.34;;;1.09;86.91
23635;BME280;11994;51.038;16.974;2023-02-26T06:59:28;99797.50;;;1.09;86.87
23635;BME280;11994;51.038;16.974;2023-02-26T07:01:53;99805.95;;;1.11;87.00
23635;BME280;11994;51.038;16.974;2023-02-26T07:04:19;99810.95;;;1.10;86.75
23635;BME280;11994;51.038;16.974;2023-02-26T07:06:44;99816.60;;;1.08;86.72
23635;BME280;11994;51.038;16.974;2023-02-26T07:09:09;99820.38;;;1.07;86.82
23635;BME280;11994;51.038;16.974;2023-02-26T07:11:34;99821.75;;;1.05;86.59
23635;BME280;11994;51.038;16.974;2023-02-26T07:14:00;99826.06;;;1.07;86.53
23635;BME280;11994;51.038;16.974;2023-02-26T07:16:25;99826.62;;;1.10;86.26
23635;BME280;11994;51.038;16.974;2023-02-26T07:18:50;99833.02;;;1.14;86.26
23635;BME280;11994;51.038;16.974;2023-02-26T07:21:16;99832.69;;;1.17;86.11
23635;BME280;11994;51.038;16.974;2023-02-26T07:23:41;99839.41;;;1.18;85.94
23635;BME280;11994;51.038;16.974;2023-02-26T07:26:06;99840.09;;;1.18;85.75
23635;BME280;11994;51.038;16.974;2023-02-26T07:28:32;99843.54;;;1.18;85.69
23635;BME280;11994;51.038;16.974;2023-02-26T07:30:58;99851.83;;;1.20;85.90
23635;BME280;11994;51.038;16.974;2023-02-26T07:33:23;99855.27;;;1.21;85.78
23635;BME280;11994;51.038;16.974;2023-02-26T07:35:49;99861.31;;;1.22;85.57
23635;BME280;11994;51.038;16.974;2023-02-26T07:38:14;99868.02;;;1.20;85.45
23635;BME280;11994;51.038;16.974;2023-02-26T07:40:39;99872.48;;;1.18;85.31
23635;BME280;11994;51.038;16.974;2023-02-26T07:43:04;99870.27;;;1.21;85.47
23635;BME280;11994;51.038;16.974;2023-02-26T07:45:30;99878.05;;;1.25;85.65
23635;BME280;11994;51.038;16.974;2023-02-26T07:47:55;99880.64;;;1.28;85.59
23635;BME280;11994;51.038;16.974;2023-02-26T07:50:20;99886.33;;;1.29;85.46
23635;BME280;11994;51.038;16.974;2023-02-26T07:52:49;99886.14;;;1.26;85.42
23635;BME280;11994;51.038;16.974;2023-02-26T07:55:15;99891.48;;;1.26;85.38
23635;BME280;11994;51.038;16.974;2023-02-26T07:57:40;99891.98;;;1.24;85.10
23635;BME280;11994;51.038;16.974;2023-02-26T08:00:06;99897.46;;;1.21;85.07
23635;BME280;11994;51.038;16.974;2023-02-26T08:02:31;99898.50;;;1.21;85.02
23635;BME280;11994;51.038;16.974;2023-02-26T08:04:56;99906.62;;;1.24;85.14
23635;BME280;11994;51.038;16.974;2023-02-26T08:07:22;99907.67;;;1.27;85.52
23635;BME280;11994;51.038;16.974;2023-02-26T08:09:47;99910.83;;;1.32;85.31
23635;BME280;11994;51.038;16.974;2023-02-26T08:12:12;99918.75;;;1.33;85.27
23635;BME280;11994;51.038;16.974;2023-02-26T08:14:37;99921.16;;;1.32;85.09
23635;BME280;11994;51.038;16.974;2023-02-26T08:17:05;99922.54;;;1.31;84.78
23635;BME280;11994;51.038;16.974;2023-02-26T08:19:30;99929.26;;;1.33;84.74
23635;BME280;11994;51.038;16.974;2023-02-26T08:21:56;99933.22;;;1.33;84.74
23635;BME280;11994;51.038;16.974;2023-02-26T08:24:21;99935.11;;;1.33;84.89
23635;BME280;11994;51.038;16.974;2023-02-26T08:26:47;99937.87;;;1.33;84.97
23635;BME280;11994;51.038;16.974;2023-02-26T08:29:12;99942.52;;;1.34;84.94
23635;BME280;11994;51.038;16.974;2023-02-26T08:31:37;99941.83;;;1.32;84.74
23635;BME280;11994;51.038;16.974;2023-02-26T08:34:02;99947.50;;;1.31;84.57
23635;BME280;11994;51.038;16.974;2023-02-26T08:36:28;99951.13;;;1.32;84.72
23635;BME280;11994;51.038;16.974;2023-02-26T08:38:54;99948.57;;;1.36;85.06
23635;BME280;11994;51.038;16.974;2023-02-26T08:41:19;99953.27;;;1.40;84.95
23635;BME280;11994;51.038;16.974;2023-02-26T08:43:44;99956.56;;;1.43;84.62
23635;BME280;11994;51.038;16.974;2023-02-26T08:46:09;99958.64;;;1.43;84.58
23635;BME280;11994;51.038;16.974;2023-02-26T08:48:35;99966.56;;;1.44;84.59
23635;BME280;11994;51.038;16.974;2023-02-26T08:51:00;99966.27;;;1.50;84.70
23635;BME280;11994;51.038;16.974;2023-02-26T08:53:25;99972.01;;;1.56;84.60
23635;BME280;11994;51.038;16.974;2023-02-26T08:55:51;99978.08;;;1.61;84.58
23635;BME280;11994;51.038;16.974;2023-02-26T08:58:17;99983.79;;;1.63;84.67
23635;BME280;11994;51.038;16.974;2023-02-26T09:00:43;99983.30;;;1.67;84.87
23635;BME280;11994;51.038;16.974;2023-02-26T09:03:08;99987.14;;;1.71;84.63
23635;BME280;11994;51.038;16.974;2023-02-26T09:05:33;99990.55;;;1.70;84.40
23635;BME280;11994;51.038;16.974;2023-02-26T09:07:58;99993.29;;;1.66;84.30
23635;BME280;11994;51.038;16.974;2023-02-26T09:10:24;99995.15;;;1.63;84.30
23635;BME280;11994;51.038;16.974;2023-02-26T09:12:49;99994.32;;;1.65;84.59
23635;BME280;11994;51.038;16.974;2023-02-26T09:15:14;100005.55;;;1.69;84.71
23635;BME280;11994;51.038;16.974;2023-02-26T09:17:40;100010.89;;;1.70;84.61
23635;BME280;11994;51.038;16.974;2023-02-26T09:20:06;100019.00;;;1.71;84.42
23635;BME280;11994;51.038;16.974;2023-02-26T09:22:31;100026.45;;;1.75;84.54
23635;BME280;11994;51.038;16.974;2023-02-26T09:24:56;100034.37;;;1.74;84.35
23635;BME280;11994;51.038;16.974;2023-02-26T09:27:22;100031.62;;;1.75;84.53
23635;BME280;11994;51.038;16.974;2023-02-26T09:29:47;100038.17;;;1.76;84.36
23635;BME280;11994;51.038;16.974;2023-02-26T09:32:12;100039.04;;;1.76;83.99
23635;BME280;11994;51.038;16.974;2023-02-26T09:34:38;100042.48;;;1.74;84.04
23635;BME280;11994;51.038;16.974;2023-02-26T09:37:03;100049.21;;;1.75;84.30
23635;BME280;11994;51.038;16.974;2023-02-26T09:39:29;100052.13;;;1.76;84.00
23635;BME280;11994;51.038;16.974;2023-02-26T09:41:55;100058.50;;;1.75;84.00
23635;BME280;11994;51.038;16.974;2023-02-26T09:44:29;100060.09;;;1.77;84.19
23635;BME280;11994;51.038;16.974;2023-02-26T09:49:40;100069.45;;;1.84;83.88
23635;BME280;11994;51.038;16.974;2023-02-26T09:54:50;100077.48;;;1.95;83.74
23635;BME280;11994;51.038;16.974;2023-02-26T09:59:51;100085.31;;;2.03;83.83
23635;BME280;11994;51.038;16.974;2023-02-26T10:04:48;100086.36;;;2.04;83.78
23635;BME280;11994;51.038;16.974;2023-02-26T10:12:18;100091.96;;;2.14;83.77
23635;BME280;11994;51.038;16.974;2023-02-26T10:17:33;100098.13;;;2.09;83.11
23635;BME280;11994;51.038;16.974;2023-02-26T10:20:00;100099.00;;;2.10;83.46
23635;BME280;11994;51.038;16.974;2023-02-26T10:22:28;100104.55;;;2.16;83.58
23635;BME280;11994;51.038;16.974;2023-02-26T10:25:04;100107.51;;;2.17;83.10
23635;BME280;11994;51.038;16.974;2023-02-26T10:27:39;100111.98;;;2.18;83.37
23635;BME280;11994;51.038;16.974;2023-02-26T10:32:55;100117.51;;;2.16;83.29
23635;BME280;11994;51.038;16.974;2023-02-26T10:35:17;100124.62;;;2.21;83.33
23635;BME280;11994;51.038;16.974;2023-02-26T10:37:47;100121.36;;;2.23;83.18
23635;BME280;11994;51.038;16.974;2023-02-26T10:40:32;100125.85;;;2.26;83.11
23635;BME280;11994;51.038;16.974;2023-02-26T10:42:59;100131.73;;;2.25;82.92
23635;BME280;11994;51.038;16.974;2023-02-26T10:45:32;100130.52;;;2.25;82.73
23635;BME280;11994;51.038;16.974;2023-02-26T10:48:16;100131.91;;;2.27;82.89
23635;BME280;11994;51.038;16.974;2023-02-26T10:50:51;100135.40;;;2.32;82.75
23635;BME280;11994;51.038;16.974;2023-02-26T10:53:16;100137.01;;;2.38;82.53
23635;BME280;11994;51.038;16.974;2023-02-26T10:55:43;100140.48;;;2.40;82.27
23635;BME280;11994;51.038;16.974;2023-02-26T10:58:12;100139.64;;;2.44;82.07
23635;BME280;11994;51.038;16.974;2023-02-26T11:00:42;100140.36;;;2.49;81.94
23635;BME280;11994;51.038;16.974;2023-02-26T11:03:08;100141.44;;;2.54;81.79
23635;BME280;11994;51.038;16.974;2023-02-26T11:05:37;100141.79;;;2.54;80.95
23635;BME280;11994;51.038;16.974;2023-02-26T11:08:04;100143.34;;;2.54;81.00
23635;BME280;11994;51.038;16.974;2023-02-26T11:10:41;100147.52;;;2.60;81.42
23635;BME280;11994;51.038;16.974;2023-02-26T11:13:08;100147.39;;;2.63;81.02
23635;BME280;11994;51.038;16.974;2023-02-26T11:15:34;100147.95;;;2.71;81.46
23635;BME280;11994;51.038;16.974;2023-02-26T11:17:59;100148.89;;;2.83;82.01
23635;BME280;11994;51.038;16.974;2023-02-26T11:20:39;100150.04;;;2.99;82.01
23635;BME280;11994;51.038;16.974;2023-02-26T11:23:06;100151.31;;;3.12;81.00
23635;BME280;11994;51.038;16.974;2023-02-26T11:25:35;100156.70;;;3.16;80.12
23635;BME280;11994;51.038;16.974;2023-02-26T11:28:06;100151.48;;;3.12;79.95
23635;BME280;11994;51.038;16.974;2023-02-26T11:30:34;100156.84;;;3.12;79.73
23635;BME280;11994;51.038;16.974;2023-02-26T11:33:03;100158.44;;;3.18;80.14
23635;BME280;11994;51.038;16.974;2023-02-26T11:35:30;100162.63;;;3.29;79.94
23635;BME280;11994;51.038;16.974;2023-02-26T11:37:56;100165.77;;;3.34;79.45
23635;BME280;11994;51.038;16.974;2023-02-26T11:42:52;100174.06;;;3.34;79.55
23635;BME280;11994;51.038;16.974;2023-02-26T11:45:19;100179.23;;;3.29;79.84
23635;BME280;11994;51.038;16.974;2023-02-26T11:47:45;100179.35;;;3.20;79.60
23635;BME280;11994;51.038;16.974;2023-02-26T11:50:15;100181.02;;;3.09;79.40
23635;BME280;11994;51.038;16.974;2023-02-26T11:52:43;100184.27;;;3.03;80.08
23635;BME280;11994;51.038;16.974;2023-02-26T11:55:28;100187.00;;;2.99;79.99
23635;BME280;11994;51.038;16.974;2023-02-26T11:57:55;100185.08;;;2.95;79.73
23635;BME280;11994;51.038;16.974;2023-02-26T12:02:46;100190.27;;;2.97;80.33
23635;BME280;11994;51.038;16.974;2023-02-26T12:05:13;100191.14;;;3.00;80.51
23635;BME280;11994;51.038;16.974;2023-02-26T12:07:40;100192.71;;;3.02;80.57
23635;BME280;11994;51.038;16.974;2023-02-26T12:10:12;100197.77;;;3.07;80.82
23635;BME280;11994;51.038;16.974;2023-02-26T12:35:56;100233.30;;;1.92;83.95
23635;BME280;11994;51.038;16.974;2023-02-26T12:38:25;100235.73;;;1.93;84.53
23635;BME280;11994;51.038;16.974;2023-02-26T12:43:24;100239.23;;;1.96;84.95
23635;BME280;11994;51.038;16.974;2023-02-26T12:54:05;100252.72;;;2.16;85.27
23635;BME280;11994;51.038;16.974;2023-02-26T12:56:51;100255.87;;;2.19;85.46
23635;BME280;11994;51.038;16.974;2023-02-26T13:02:02;100262.33;;;2.12;85.02
23635;BME280;11994;51.038;16.974;2023-02-26T13:07:15;100257.27;;;2.08;85.05
23635;BME280;11994;51.038;16.974;2023-02-26T13:19:55;100269.08;;;2.46;85.37
23635;BME280;11994;51.038;16.974;2023-02-26T13:24:55;100268.80;;;2.53;84.86
23635;BME280;11994;51.038;16.974;2023-02-26T13:27:23;100270.91;;;2.56;84.69
23635;BME280;11994;51.038;16.974;2023-02-26T13:29:52;100272.02;;;2.64;84.79
23635;BME280;11994;51.038;16.974;2023-02-26T13:32:23;100272.60;;;2.72;84.60
23635;BME280;11994;51.038;16.974;2023-02-26T13:37:26;100270.36;;;2.92;84.76
23635;BME280;11994;51.038;16.974;2023-02-26T13:40:36;100283.95;;;3.09;83.77
23635;BME280;11994;51.038;16.974;2023-02-26T13:43:31;100285.55;;;2.90;83.59
23635;BME280;11994;51.038;16.974;2023-02-26T13:58:53;100298.17;;;2.24;84.94
23635;BME280;11994;51.038;16.974;2023-02-26T14:01:34;100297.34;;;2.26;84.88
23635;BME280;11994;51.038;16.974;2023-02-26T14:07:13;100301.11;;;2.25;84.82
23635;BME280;11994;51.038;16.974;2023-02-26T14:09:56;100308.18;;;2.24;84.58
23635;BME280;11994;51.038;16.974;2023-02-26T14:13:02;100310.41;;;2.22;84.51
23635;BME280;11994;51.038;16.974;2023-02-26T14:15:40;100310.23;;;2.21;84.06
23635;BME280;11994;51.038;16.974;2023-02-26T14:24:22;100316.02;;;2.31;84.04
23635;BME280;11994;51.038;16.974;2023-02-26T14:30:04;100317.66;;;2.54;84.69
23635;BME280;11994;51.038;16.974;2023-02-26T14:35:33;100325.03;;;2.67;84.00
23635;BME280;11994;51.038;16.974;2023-02-26T14:38:06;100329.76;;;2.72;84.10
23635;BME280;11994;51.038;16.974;2023-02-26T14:41:41;100333.94;;;2.77;83.99
23635;BME280;11994;51.038;16.974;2023-02-26T14:44:10;100350.74;;;2.82;83.93
23635;BME280;11994;51.038;16.974;2023-02-26T14:46:51;100360.37;;;2.78;83.71
23635;BME280;11994;51.038;16.974;2023-02-26T14:49:31;100360.19;;;2.61;83.54
23635;BME280;11994;51.038;16.974;2023-02-26T14:52:16;100357.96;;;2.31;83.92
23635;BME280;11994;51.038;16.974;2023-02-26T14:58:09;100362.23;;;1.88;84.68
23635;BME280;11994;51.038;16.974;2023-02-26T15:00:48;100374.85;;;1.79;85.05
23635;BME280;11994;51.038;16.974;2023-02-26T15:03:42;100374.45;;;1.75;85.23
23635;BME280;11994;51.038;16.974;2023-02-26T15:07:07;100380.63;;;1.74;85.86
23635;BME280;11994;51.038;16.974;2023-02-26T15:25:36;100397.58;;;1.44;87.65
23635;BME280;11994;51.038;16.974;2023-02-26T15:28:04;100395.29;;;1.41;87.45
23635;BME280;11994;51.038;16.974;2023-02-26T15:30:50;100395.63;;;1.41;87.42
23635;BME280;11994;51.038;16.974;2023-02-26T15:33:21;100399.98;;;1.43;87.29
23635;BME280;11994;51.038;16.974;2023-02-26T15:35:54;100399.81;;;1.44;87.21
23635;BME280;11994;51.038;16.974;2023-02-26T15:48:40;100414.65;;;1.45;86.91
23635;BME280;11994;51.038;16.974;2023-02-26T15:51:12;100409.70;;;1.48;86.63
23635;BME280;11994;51.038;16.974;2023-02-26T15:53:43;100413.17;;;1.49;86.65
23635;BME280;11994;51.038;16.974;2023-02-26T15:56:22;100421.98;;;1.50;86.52
23635;BME280;11994;51.038;16.974;2023-02-26T16:09:18;100440.87;;;1.47;86.56
23635;BME280;11994;51.038;16.974;2023-02-26T16:12:11;100445.73;;;1.48;86.09
23635;BME280;11994;51.038;16.974;2023-02-26T16:15:01;100449.05;;;1.52;86.22
23635;BME280;11994;51.038;16.974;2023-02-26T16:17:50;100449.74;;;1.52;86.28
23635;BME280;11994;51.038;16.974;2023-02-26T16:20:41;100452.64;;;1.50;86.44
23635;BME280;11994;51.038;16.974;2023-02-26T16:23:52;100460.00;;;1.47;86.34
23635;BME280;11994;51.038;16.974;2023-02-26T16:26:45;100465.79;;;1.43;86.38
23635;BME280;11994;51.038;16.974;2023-02-26T16:29:23;100470.22;;;1.41;86.36